sensor_id;sensor_type;location;lat;lon;timestamp;P1;durP1;ratioP1;P2;durP2;ratioP2
16543;SDS011;8384;47.996;7.786;2022-09-03T00:01:07;3.97;;;3.60;;
16543;SDS011;8384;47.996;7.786;2022-09-03T00:03:43;4.07;;;3.78;;
16543;SDS011;8384;47.996;7.786;2022-09-03T00:06:12;4.10;;;3.80;;
16543;SDS011;8384;47.996;7.786;2022-09-03T00:08:50;4.35;;;3.78;;
16543;SDS011;8384;47.996;7.786;2022-09-03T00:11:24;3.70;;;3.40;;
16543;SDS011;8384;47.996;7.786;2022-09-03T00:16:23;3.28;;;3.08;;
16543;SDS011;8384;47.996;7.786;2022-09-03T00:18:54;3.30;;;3.00;;
16543;SDS011;8384;47.996;7.786;2022-09-03T00:21:31;3.45;;;3.15;;
16543;SDS011;8384;47.996;7.786;2022-09-03T00:24:02;3.42;;;3.13;;
16543;SDS011;8384;47.996;7.786;2022-09-03T00:26:32;3.17;;;2.88;;
16543;SDS011;8384;47.996;7.786;2022-09-03T00:29:06;3.00;;;2.80;;
16543;SDS011;8384;47.996;7.786;2022-09-03T00:31:53;3.78;;;3.30;;
16543;SDS011;8384;47.996;7.786;2022-09-03T00:34:24;2.95;;;2.75;;
16543;SDS011;8384;47.996;7.786;2022-09-03T00:36:54;3.03;;;2.83;;
16543;SDS011;8384;47.996;7.786;2022-09-03T00:39:21;2.88;;;2.67;;
16543;SDS011;8384;47.996;7.786;2022-09-03T00:42:04;2.80;;;2.60;;
16543;SDS011;8384;47.996;7.786;2022-09-03T00:44:37;3.13;;;2.83;;
16543;SDS011;8384;47.996;7.786;2022-09-03T00:47:23;2.80;;;2.60;;
16543;SDS011;8384;47.996;7.786;2022-09-03T00:50:26;2.97;;;2.67;;
16543;SDS011;8384;47.996;7.786;2022-09-03T00:53:02;2.67;;;2.47;;
16543;SDS011;8384;47.996;7.786;2022-09-03T01:01:04;2.80;;;2.50;;
16543;SDS011;8384;47.996;7.786;2022-09-03T01:03:45;3.42;;;2.70;;
16543;SDS011;8384;47.996;7.786;2022-09-03T01:06:21;2.80;;;2.60;;
16543;SDS011;8384;47.996;7.786;2022-09-03T01:11:49;2.63;;;2.40;;
16543;SDS011;8384;47.996;7.786;2022-09-03T01:15:00;2.83;;;2.60;;
16543;SDS011;8384;47.996;7.786;2022-09-03T01:17:40;2.88;;;2.67;;
16543;SDS011;8384;47.996;7.786;2022-09-03T01:20:32;2.38;;;2.28;;
16543;SDS011;8384;47.996;7.786;2022-09-03T01:23:25;3.28;;;3.00;;
16543;SDS011;8384;47.996;7.786;2022-09-03T01:34:16;2.60;;;2.38;;
16543;SDS011;8384;47.996;7.786;2022-09-03T01:36:59;3.22;;;2.58;;
16543;SDS011;8384;47.996;7.786;2022-09-03T01:39:34;2.63;;;2.33;;
16543;SDS011;8384;47.996;7.786;2022-09-03T01:42:22;2.60;;;2.40;;
16543;SDS011;8384;47.996;7.786;2022-09-03T01:53:09;2.70;;;2.50;;
16543;SDS011;8384;47.996;7.786;2022-09-03T01:55:46;3.10;;;2.63;;
16543;SDS011;8384;47.996;7.786;2022-09-03T01:58:28;2.83;;;2.63;;
16543;SDS011;8384;47.996;7.786;2022-09-03T02:00:59;3.58;;;2.60;;
16543;SDS011;8384;47.996;7.786;2022-09-03T02:03:32;2.70;;;2.50;;
16543;SDS011;8384;47.996;7.786;2022-09-03T02:06:01;2.65;;;2.30;;
16543;SDS011;8384;47.996;7.786;2022-09-03T02:08:27;2.53;;;2.30;;
16543;SDS011;8384;47.996;7.786;2022-09-03T02:10:54;3.33;;;2.40;;
16543;SDS011;8384;47.996;7.786;2022-09-03T02:13:27;2.50;;;2.30;;
16543;SDS011;8384;47.996;7.786;2022-09-03T02:15:56;3.03;;;2.40;;
16543;SDS011;8384;47.996;7.786;2022-09-03T02:18:35;2.60;;;2.25;;
16543;SDS011;8384;47.996;7.786;2022-09-03T02:21:05;2.33;;;2.10;;
16543;SDS011;8384;47.996;7.786;2022-09-03T02:23:31;2.67;;;2.23;;
16543;SDS011;8384;47.996;7.786;2022-09-03T02:25:59;2.80;;;1.90;;
16543;SDS011;8384;47.996;7.786;2022-09-03T02:28:29;2.80;;;2.57;;
16543;SDS011;8384;47.996;7.786;2022-09-03T02:30:56;2.70;;;2.20;;
16543;SDS011;8384;47.996;7.786;2022-09-03T02:33:22;2.87;;;2.30;;
16543;SDS011;8384;47.996;7.786;2022-09-03T02:35:47;2.47;;;2.27;;
16543;SDS011;8384;47.996;7.786;2022-09-03T02:38:14;2.60;;;2.13;;
16543;SDS011;8384;47.996;7.786;2022-09-03T02:40:42;2.17;;;1.90;;
16543;SDS011;8384;47.996;7.786;2022-09-03T02:43:10;2.38;;;2.17;;
16543;SDS011;8384;47.996;7.786;2022-09-03T02:45:41;3.05;;;2.20;;
16543;SDS011;8384;47.996;7.786;2022-09-03T02:48:11;2.63;;;2.40;;
16543;SDS011;8384;47.996;7.786;2022-09-03T02:50:41;2.80;;;2.30;;
16543;SDS011;8384;47.996;7.786;2022-09-03T02:53:07;2.50;;;2.30;;
16543;SDS011;8384;47.996;7.786;2022-09-03T02:55:33;2.60;;;2.40;;
16543;SDS011;8384;47.996;7.786;2022-09-03T02:57:58;2.70;;;2.50;;
16543;SDS011;8384;47.996;7.786;2022-09-03T03:00:24;2.78;;;2.50;;
16543;SDS011;8384;47.996;7.786;2022-09-03T03:02:50;3.42;;;2.30;;
16543;SDS011;8384;47.996;7.786;2022-09-03T03:05:17;2.65;;;2.45;;
16543;SDS011;8384;47.996;7.786;2022-09-03T03:07:51;2.78;;;2.58;;
16543;SDS011;8384;47.996;7.786;2022-09-03T03:10:16;2.70;;;2.50;;
16543;SDS011;8384;47.996;7.786;2022-09-03T03:12:41;2.90;;;2.70;;
16543;SDS011;8384;47.996;7.786;2022-09-03T03:15:07;2.70;;;2.50;;
16543;SDS011;8384;47.996;7.786;2022-09-03T03:17:32;2.53;;;2.33;;
16543;SDS011;8384;47.996;7.786;2022-09-03T03:19:58;2.50;;;2.30;;
16543;SDS011;8384;47.996;7.786;2022-09-03T03:22:23;2.80;;;2.37;;
16543;SDS011;8384;47.996;7.786;2022-09-03T03:24:48;2.40;;;2.20;;
16543;SDS011;8384;47.996;7.786;2022-09-03T03:27:14;2.47;;;2.30;;
16543;SDS011;8384;47.996;7.786;2022-09-03T03:29:40;2.50;;;2.30;;
16543;SDS011;8384;47.996;7.786;2022-09-03T03:32:05;2.80;;;2.60;;
16543;SDS011;8384;47.996;7.786;2022-09-03T03:34:30;2.20;;;2.10;;
16543;SDS011;8384;47.996;7.786;2022-09-03T03:36:55;2.30;;;2.20;;
16543;SDS011;8384;47.996;7.786;2022-09-03T03:39:21;2.63;;;2.43;;
16543;SDS011;8384;47.996;7.786;2022-09-03T03:41:46;3.17;;;2.70;;
16543;SDS011;8384;47.996;7.786;2022-09-03T03:44:11;2.60;;;2.40;;
16543;SDS011;8384;47.996;7.786;2022-09-03T03:46:37;2.70;;;2.50;;
16543;SDS011;8384;47.996;7.786;2022-09-03T03:49:04;2.60;;;2.40;;
16543;SDS011;8384;47.996;7.786;2022-09-03T03:51:33;2.80;;;2.60;;
16543;SDS011;8384;47.996;7.786;2022-09-03T03:54:00;2.60;;;2.40;;
16543;SDS011;8384;47.996;7.786;2022-09-03T03:56:25;2.53;;;2.33;;
16543;SDS011;8384;47.996;7.786;2022-09-03T03:58:51;2.95;;;2.65;;
16543;SDS011;8384;47.996;7.786;2022-09-03T04:01:19;3.00;;;2.60;;
16543;SDS011;8384;47.996;7.786;2022-09-03T04:03:46;2.90;;;2.70;;
16543;SDS011;8384;47.996;7.786;2022-09-03T04:06:12;3.13;;;2.83;;
16543;SDS011;8384;47.996;7.786;2022-09-03T04:08:40;2.97;;;2.63;;
16543;SDS011;8384;47.996;7.786;2022-09-03T04:11:07;2.50;;;2.40;;
16543;SDS011;8384;47.996;7.786;2022-09-03T04:13:38;2.92;;;2.63;;
16543;SDS011;8384;47.996;7.786;2022-09-03T04:16:08;2.40;;;2.30;;
16543;SDS011;8384;47.996;7.786;2022-09-03T04:18:37;2.90;;;2.70;;
16543;SDS011;8384;47.996;7.786;2022-09-03T04:21:07;3.10;;;2.80;;
16543;SDS011;8384;47.996;7.786;2022-09-03T04:23:36;3.33;;;2.90;;
16543;SDS011;8384;47.996;7.786;2022-09-03T04:26:03;2.80;;;2.60;;
16543;SDS011;8384;47.996;7.786;2022-09-03T04:28:29;2.80;;;2.58;;
16543;SDS011;8384;47.996;7.786;2022-09-03T04:30:59;2.97;;;2.67;;
16543;SDS011;8384;47.996;7.786;2022-09-03T04:33:25;2.65;;;2.45;;
16543;SDS011;8384;47.996;7.786;2022-09-03T04:35:50;2.83;;;2.60;;
16543;SDS011;8384;47.996;7.786;2022-09-03T04:38:16;3.47;;;2.83;;
16543;SDS011;8384;47.996;7.786;2022-09-03T04:40:41;2.70;;;2.50;;
16543;SDS011;8384;47.996;7.786;2022-09-03T04:43:06;2.50;;;2.37;;
16543;SDS011;8384;47.996;7.786;2022-09-03T04:45:32;2.63;;;2.43;;
16543;SDS011;8384;47.996;7.786;2022-09-03T04:47:57;2.70;;;2.50;;
16543;SDS011;8384;47.996;7.786;2022-09-03T04:50:24;2.28;;;2.17;;
16543;SDS011;8384;47.996;7.786;2022-09-03T04:52:51;2.47;;;2.38;;
16543;SDS011;8384;47.996;7.786;2022-09-03T04:55:20;2.63;;;2.50;;
16543;SDS011;8384;47.996;7.786;2022-09-03T04:57:46;2.85;;;2.58;;
16543;SDS011;8384;47.996;7.786;2022-09-03T05:00:11;2.93;;;2.73;;
16543;SDS011;8384;47.996;7.786;2022-09-03T05:02:37;2.90;;;2.70;;
16543;SDS011;8384;47.996;7.786;2022-09-03T05:05:02;3.17;;;2.80;;
16543;SDS011;8384;47.996;7.786;2022-09-03T05:07:28;2.75;;;2.55;;
16543;SDS011;8384;47.996;7.786;2022-09-03T05:10:02;2.53;;;2.33;;
16543;SDS011;8384;47.996;7.786;2022-09-03T05:12:32;2.40;;;2.20;;
16543;SDS011;8384;47.996;7.786;2022-09-03T05:14:57;3.72;;;3.15;;
16543;SDS011;8384;47.996;7.786;2022-09-03T05:17:24;3.53;;;2.80;;
16543;SDS011;8384;47.996;7.786;2022-09-03T05:19:49;2.90;;;2.70;;
16543;SDS011;8384;47.996;7.786;2022-09-03T05:22:14;2.70;;;2.50;;
16543;SDS011;8384;47.996;7.786;2022-09-03T05:24:45;2.72;;;2.53;;
16543;SDS011;8384;47.996;7.786;2022-09-03T05:27:10;2.80;;;2.60;;
16543;SDS011;8384;47.996;7.786;2022-09-03T05:29:35;2.90;;;2.70;;
16543;SDS011;8384;47.996;7.786;2022-09-03T05:32:01;2.90;;;2.70;;
16543;SDS011;8384;47.996;7.786;2022-09-03T05:34:27;2.58;;;2.38;;
16543;SDS011;8384;47.996;7.786;2022-09-03T05:36:53;2.90;;;2.70;;
16543;SDS011;8384;47.996;7.786;2022-09-03T05:39:19;2.80;;;2.60;;
16543;SDS011;8384;47.996;7.786;2022-09-03T05:41:44;2.80;;;2.60;;
16543;SDS011;8384;47.996;7.786;2022-09-03T05:44:09;3.20;;;2.90;;
16543;SDS011;8384;47.996;7.786;2022-09-03T05:46:34;3.17;;;2.83;;
16543;SDS011;8384;47.996;7.786;2022-09-03T05:49:02;2.75;;;2.55;;
16543;SDS011;8384;47.996;7.786;2022-09-03T05:51:29;2.90;;;2.70;;
16543;SDS011;8384;47.996;7.786;2022-09-03T05:53:56;3.00;;;2.80;;
16543;SDS011;8384;47.996;7.786;2022-09-03T05:56:22;6.85;;;3.00;;
16543;SDS011;8384;47.996;7.786;2022-09-03T05:58:54;4.55;;;3.00;;
16543;SDS011;8384;47.996;7.786;2022-09-03T06:01:22;2.97;;;2.78;;
16543;SDS011;8384;47.996;7.786;2022-09-03T06:03:55;3.00;;;2.70;;
16543;SDS011;8384;47.996;7.786;2022-09-03T06:06:25;3.10;;;2.80;;
16543;SDS011;8384;47.996;7.786;2022-09-03T06:08:52;3.30;;;3.00;;
16543;SDS011;8384;47.996;7.786;2022-09-03T06:11:19;3.10;;;2.80;;
16543;SDS011;8384;47.996;7.786;2022-09-03T06:13:45;3.30;;;3.00;;
16543;SDS011;8384;47.996;7.786;2022-09-03T06:16:11;3.10;;;2.90;;
16543;SDS011;8384;47.996;7.786;2022-09-03T06:18:36;3.17;;;2.87;;
16543;SDS011;8384;47.996;7.786;2022-09-03T06:21:03;3.50;;;3.10;;
16543;SDS011;8384;47.996;7.786;2022-09-03T06:23:30;3.10;;;2.90;;
16543;SDS011;8384;47.996;7.786;2022-09-03T06:26:00;3.20;;;2.90;;
16543;SDS011;8384;47.996;7.786;2022-09-03T06:28:27;3.03;;;2.83;;
16543;SDS011;8384;47.996;7.786;2022-09-03T06:30:53;3.50;;;3.00;;
16543;SDS011;8384;47.996;7.786;2022-09-03T06:33:21;3.00;;;2.80;;
16543;SDS011;8384;47.996;7.786;2022-09-03T06:35:51;3.40;;;2.70;;
16543;SDS011;8384;47.996;7.786;2022-09-03T06:38:23;2.80;;;2.60;;
16543;SDS011;8384;47.996;7.786;2022-09-03T06:40:53;3.10;;;2.80;;
16543;SDS011;8384;47.996;7.786;2022-09-03T06:43:23;3.00;;;2.80;;
16543;SDS011;8384;47.996;7.786;2022-09-03T06:45:57;2.85;;;2.60;;
16543;SDS011;8384;47.996;7.786;2022-09-03T06:48:26;3.03;;;2.63;;
16543;SDS011;8384;47.996;7.786;2022-09-03T06:53:23;2.80;;;2.60;;
16543;SDS011;8384;47.996;7.786;2022-09-03T06:55:54;3.17;;;2.85;;
16543;SDS011;8384;47.996;7.786;2022-09-03T06:58:20;3.00;;;2.72;;
16543;SDS011;8384;47.996;7.786;2022-09-03T07:00:46;2.83;;;2.63;;
16543;SDS011;8384;47.996;7.786;2022-09-03T07:03:13;2.97;;;2.78;;
16543;SDS011;8384;47.996;7.786;2022-09-03T07:05:39;3.13;;;2.93;;
16543;SDS011;8384;47.996;7.786;2022-09-03T07:08:04;3.37;;;3.00;;
16543;SDS011;8384;47.996;7.786;2022-09-03T07:10:29;4.33;;;3.30;;
16543;SDS011;8384;47.996;7.786;2022-09-03T07:12:54;3.20;;;2.90;;
16543;SDS011;8384;47.996;7.786;2022-09-03T07:15:20;3.50;;;3.20;;
16543;SDS011;8384;47.996;7.786;2022-09-03T07:17:45;3.20;;;2.90;;
16543;SDS011;8384;47.996;7.786;2022-09-03T07:20:10;3.35;;;2.80;;
16543;SDS011;8384;47.996;7.786;2022-09-03T07:22:36;2.97;;;2.70;;
16543;SDS011;8384;47.996;7.786;2022-09-03T07:25:01;3.60;;;3.03;;
16543;SDS011;8384;47.996;7.786;2022-09-03T07:27:26;2.93;;;2.63;;
16543;SDS011;8384;47.996;7.786;2022-09-03T07:29:51;2.80;;;2.60;;
16543;SDS011;8384;47.996;7.786;2022-09-03T07:32:17;2.33;;;2.13;;
16543;SDS011;8384;47.996;7.786;2022-09-03T07:34:42;2.20;;;2.10;;
16543;SDS011;8384;47.996;7.786;2022-09-03T07:37:07;2.47;;;2.30;;
16543;SDS011;8384;47.996;7.786;2022-09-03T07:39:33;2.50;;;2.30;;
16543;SDS011;8384;47.996;7.786;2022-09-03T07:41:58;2.67;;;2.30;;
16543;SDS011;8384;47.996;7.786;2022-09-03T07:44:24;3.10;;;2.20;;
16543;SDS011;8384;47.996;7.786;2022-09-03T07:46:49;2.47;;;2.28;;
16543;SDS011;8384;47.996;7.786;2022-09-03T07:49:14;2.10;;;1.90;;
16543;SDS011;8384;47.996;7.786;2022-09-03T07:51:41;2.03;;;1.90;;
16543;SDS011;8384;47.996;7.786;2022-09-03T07:54:07;2.70;;;1.90;;
16543;SDS011;8384;47.996;7.786;2022-09-03T07:56:34;2.00;;;1.90;;
16543;SDS011;8384;47.996;7.786;2022-09-03T07:59:01;2.20;;;2.00;;
16543;SDS011;8384;47.996;7.786;2022-09-03T08:01:27;2.38;;;1.90;;
16543;SDS011;8384;47.996;7.786;2022-09-03T08:03:55;2.22;;;1.80;;
16543;SDS011;8384;47.996;7.786;2022-09-03T08:06:21;2.00;;;1.70;;
16543;SDS011;8384;47.996;7.786;2022-09-03T08:08:52;1.95;;;1.85;;
16543;SDS011;8384;47.996;7.786;2022-09-03T08:11:20;1.92;;;1.83;;
16543;SDS011;8384;47.996;7.786;2022-09-03T08:13:47;2.30;;;1.80;;
16543;SDS011;8384;47.996;7.786;2022-09-03T08:16:16;2.15;;;2.00;;
16543;SDS011;8384;47.996;7.786;2022-09-03T08:18:42;2.10;;;1.90;;
16543;SDS011;8384;47.996;7.786;2022-09-03T08:21:12;2.20;;;2.00;;
16543;SDS011;8384;47.996;7.786;2022-09-03T08:23:40;2.20;;;2.00;;
16543;SDS011;8384;47.996;7.786;2022-09-03T08:26:07;2.10;;;1.90;;
16543;SDS011;8384;47.996;7.786;2022-09-03T08:28:34;2.30;;;2.10;;
16543;SDS011;8384;47.996;7.786;2022-09-03T08:31:03;2.00;;;1.90;;
16543;SDS011;8384;47.996;7.786;2022-09-03T08:33:35;2.25;;;2.15;;
16543;SDS011;8384;47.996;7.786;2022-09-03T08:36:11;2.53;;;2.30;;
16543;SDS011;8384;47.996;7.786;2022-09-03T08:38:40;2.40;;;2.20;;
16543;SDS011;8384;47.996;7.786;2022-09-03T08:43:50;2.63;;;2.10;;
16543;SDS011;8384;47.996;7.786;2022-09-03T08:46:32;2.30;;;2.10;;
16543;SDS011;8384;47.996;7.786;2022-09-03T08:49:05;2.75;;;2.20;;
16543;SDS011;8384;47.996;7.786;2022-09-03T08:51:34;2.08;;;1.98;;
16543;SDS011;8384;47.996;7.786;2022-09-03T08:54:02;2.65;;;2.20;;
16543;SDS011;8384;47.996;7.786;2022-09-03T08:56:29;2.63;;;2.10;;
16543;SDS011;8384;47.996;7.786;2022-09-03T08:58:56;2.60;;;2.20;;
16543;SDS011;8384;47.996;7.786;2022-09-03T09:01:41;3.35;;;2.28;;
16543;SDS011;8384;47.996;7.786;2022-09-03T09:10:14;2.50;;;2.20;;
16543;SDS011;8384;47.996;7.786;2022-09-03T09:12:57;2.13;;;2.03;;
16543;SDS011;8384;47.996;7.786;2022-09-03T09:15:40;2.90;;;2.00;;
16543;SDS011;8384;47.996;7.786;2022-09-03T09:21:07;2.50;;;1.98;;
16543;SDS011;8384;47.996;7.786;2022-09-03T09:23:56;2.08;;;1.98;;
16543;SDS011;8384;47.996;7.786;2022-09-03T09:26:27;1.90;;;1.80;;
16543;SDS011;8384;47.996;7.786;2022-09-03T09:28:54;2.30;;;1.90;;
16543;SDS011;8384;47.996;7.786;2022-09-03T09:31:27;2.30;;;1.70;;
16543;SDS011;8384;47.996;7.786;2022-09-03T09:33:54;1.90;;;1.80;;
16543;SDS011;8384;47.996;7.786;2022-09-03T09:36:26;2.30;;;2.10;;
16543;SDS011;8384;47.996;7.786;2022-09-03T09:38:52;3.05;;;1.90;;
16543;SDS011;8384;47.996;7.786;2022-09-03T09:41:18;3.13;;;2.07;;
16543;SDS011;8384;47.996;7.786;2022-09-03T09:43:45;3.75;;;2.30;;
16543;SDS011;8384;47.996;7.786;2022-09-03T09:48:54;3.30;;;2.33;;
16543;SDS011;8384;47.996;7.786;2022-09-03T09:53:59;3.42;;;2.33;;
16543;SDS011;8384;47.996;7.786;2022-09-03T09:56:25;3.80;;;2.53;;
16543;SDS011;8384;47.996;7.786;2022-09-03T09:59:07;3.70;;;2.47;;
16543;SDS011;8384;47.996;7.786;2022-09-03T10:01:35;3.60;;;2.58;;
16543;SDS011;8384;47.996;7.786;2022-09-03T10:06:36;5.15;;;3.17;;
16543;SDS011;8384;47.996;7.786;2022-09-03T10:09:31;7.45;;;3.78;;
16543;SDS011;8384;47.996;7.786;2022-09-03T10:12:07;6.30;;;3.30;;
16543;SDS011;8384;47.996;7.786;2022-09-03T10:28:32;3.72;;;3.03;;
16543;SDS011;8384;47.996;7.786;2022-09-03T10:33:38;4.72;;;3.00;;
16543;SDS011;8384;47.996;7.786;2022-09-03T10:36:19;4.72;;;2.70;;
16543;SDS011;8384;47.996;7.786;2022-09-03T10:38:51;2.60;;;2.10;;
16543;SDS011;8384;47.996;7.786;2022-09-03T10:46:28;2.40;;;1.77;;
16543;SDS011;8384;47.996;7.786;2022-09-03T10:49:19;2.90;;;1.88;;
16543;SDS011;8384;47.996;7.786;2022-09-03T10:52:30;2.55;;;1.98;;
16543;SDS011;8384;47.996;7.786;2022-09-03T10:57:33;3.85;;;1.92;;
16543;SDS011;8384;47.996;7.786;2022-09-03T11:00:04;3.30;;;1.90;;
16543;SDS011;8384;47.996;7.786;2022-09-03T11:05:31;3.15;;;1.67;;
16543;SDS011;8384;47.996;7.786;2022-09-03T11:08:13;2.13;;;1.80;;
16543;SDS011;8384;47.996;7.786;2022-09-03T11:10:47;3.00;;;1.60;;
16543;SDS011;8384;47.996;7.786;2022-09-03T11:13:18;1.98;;;1.77;;
16543;SDS011;8384;47.996;7.786;2022-09-03T11:15:52;2.60;;;1.80;;
16543;SDS011;8384;47.996;7.786;2022-09-03T11:18:24;2.03;;;1.40;;
16543;SDS011;8384;47.996;7.786;2022-09-03T11:20:55;1.63;;;1.20;;
16543;SDS011;8384;47.996;7.786;2022-09-03T11:23:24;1.65;;;1.00;;
16543;SDS011;8384;47.996;7.786;2022-09-03T11:25:56;1.60;;;0.95;;
16543;SDS011;8384;47.996;7.786;2022-09-03T11:31:29;2.13;;;1.20;;
16543;SDS011;8384;47.996;7.786;2022-09-03T11:34:07;1.23;;;1.00;;
16543;SDS011;8384;47.996;7.786;2022-09-03T11:36:39;2.13;;;1.00;;
16543;SDS011;8384;47.996;7.786;2022-09-03T11:39:18;1.10;;;1.00;;
16543;SDS011;8384;47.996;7.786;2022-09-03T11:42:04;0.80;;;0.80;;
16543;SDS011;8384;47.996;7.786;2022-09-03T11:44:43;1.80;;;0.80;;
16543;SDS011;8384;47.996;7.786;2022-09-03T11:47:14;0.85;;;0.70;;
16543;SDS011;8384;47.996;7.786;2022-09-03T11:49:51;1.20;;;0.90;;
16543;SDS011;8384;47.996;7.786;2022-09-03T11:52:28;0.70;;;0.70;;
16543;SDS011;8384;47.996;7.786;2022-09-03T11:54:56;0.98;;;0.77;;
16543;SDS011;8384;47.996;7.786;2022-09-03T11:57:31;1.10;;;0.70;;
16543;SDS011;8384;47.996;7.786;2022-09-03T12:00:14;0.60;;;0.60;;
16543;SDS011;8384;47.996;7.786;2022-09-03T12:02:57;0.60;;;0.60;;
16543;SDS011;8384;47.996;7.786;2022-09-03T12:05:41;0.93;;;0.60;;
16543;SDS011;8384;47.996;7.786;2022-09-03T12:08:21;0.77;;;0.50;;
16543;SDS011;8384;47.996;7.786;2022-09-03T12:16:21;0.68;;;0.50;;
16543;SDS011;8384;47.996;7.786;2022-09-03T12:19:03;0.93;;;0.50;;
16543;SDS011;8384;47.996;7.786;2022-09-03T12:21:38;0.70;;;0.40;;
16543;SDS011;8384;47.996;7.786;2022-09-03T12:24:04;0.60;;;0.43;;
16543;SDS011;8384;47.996;7.786;2022-09-03T12:26:37;0.57;;;0.43;;
16543;SDS011;8384;47.996;7.786;2022-09-03T12:29:04;0.60;;;0.40;;
16543;SDS011;8384;47.996;7.786;2022-09-03T12:31:31;1.30;;;0.30;;
16543;SDS011;8384;47.996;7.786;2022-09-03T12:34:09;0.40;;;0.40;;
16543;SDS011;8384;47.996;7.786;2022-09-03T12:36:41;1.25;;;0.50;;
16543;SDS011;8384;47.996;7.786;2022-09-03T12:39:08;0.40;;;0.40;;
16543;SDS011;8384;47.996;7.786;2022-09-03T12:41:37;0.40;;;0.40;;
16543;SDS011;8384;47.996;7.786;2022-09-03T12:44:02;0.50;;;0.40;;
16543;SDS011;8384;47.996;7.786;2022-09-03T12:46:29;0.40;;;0.40;;
16543;SDS011;8384;47.996;7.786;2022-09-03T12:48:58;0.50;;;0.43;;
16543;SDS011;8384;47.996;7.786;2022-09-03T12:51:39;0.40;;;0.40;;
16543;SDS011;8384;47.996;7.786;2022-09-03T12:54:06;0.60;;;0.60;;
16543;SDS011;8384;47.996;7.786;2022-09-03T12:56:40;0.50;;;0.50;;
16543;SDS011;8384;47.996;7.786;2022-09-03T12:59:15;0.60;;;0.40;;
16543;SDS011;8384;47.996;7.786;2022-09-03T13:01:48;0.43;;;0.43;;
16543;SDS011;8384;47.996;7.786;2022-09-03T13:04:33;0.90;;;0.50;;
16543;SDS011;8384;47.996;7.786;2022-09-03T13:07:01;0.60;;;0.60;;
16543;SDS011;8384;47.996;7.786;2022-09-03T13:09:32;0.93;;;0.52;;
16543;SDS011;8384;47.996;7.786;2022-09-03T13:12:00;0.60;;;0.53;;
16543;SDS011;8384;47.996;7.786;2022-09-03T13:14:39;0.57;;;0.50;;
16543;SDS011;8384;47.996;7.786;2022-09-03T13:17:09;0.50;;;0.50;;
16543;SDS011;8384;47.996;7.786;2022-09-03T13:19:46;0.60;;;0.60;;
16543;SDS011;8384;47.996;7.786;2022-09-03T13:25:22;0.90;;;0.50;;
16543;SDS011;8384;47.996;7.786;2022-09-03T13:28:09;0.50;;;0.50;;
16543;SDS011;8384;47.996;7.786;2022-09-03T13:31:07;0.57;;;0.50;;
16543;SDS011;8384;47.996;7.786;2022-09-03T13:33:50;0.70;;;0.60;;
16543;SDS011;8384;47.996;7.786;2022-09-03T13:36:23;0.47;;;0.47;;
16543;SDS011;8384;47.996;7.786;2022-09-03T13:38:54;0.70;;;0.50;;
16543;SDS011;8384;47.996;7.786;2022-09-03T13:41:31;0.67;;;0.47;;
16543;SDS011;8384;47.996;7.786;2022-09-03T13:44:05;1.27;;;0.63;;
16543;SDS011;8384;47.996;7.786;2022-09-03T13:52:33;2.10;;;0.70;;
16543;SDS011;8384;47.996;7.786;2022-09-03T14:00:36;0.85;;;0.70;;
16543;SDS011;8384;47.996;7.786;2022-09-03T14:03:24;0.82;;;0.82;;
16543;SDS011;8384;47.996;7.786;2022-09-03T14:08:58;0.80;;;0.80;;
16543;SDS011;8384;47.996;7.786;2022-09-03T14:14:27;1.20;;;1.00;;
16543;SDS011;8384;47.996;7.786;2022-09-03T14:22:33;0.98;;;0.98;;
16543;SDS011;8384;47.996;7.786;2022-09-03T14:25:17;1.00;;;0.90;;
16543;SDS011;8384;47.996;7.786;2022-09-03T14:27:44;1.30;;;1.20;;
16543;SDS011;8384;47.996;7.786;2022-09-03T14:33:26;1.30;;;1.20;;
16543;SDS011;8384;47.996;7.786;2022-09-03T14:38:53;1.70;;;1.25;;
16543;SDS011;8384;47.996;7.786;2022-09-03T14:41:31;1.30;;;1.20;;
16543;SDS011;8384;47.996;7.786;2022-09-03T14:55:30;1.60;;;1.20;;
16543;SDS011;8384;47.996;7.786;2022-09-03T15:00:57;1.40;;;1.30;;
16543;SDS011;8384;47.996;7.786;2022-09-03T15:12:02;1.50;;;1.40;;
16543;SDS011;8384;47.996;7.786;2022-09-03T15:15:07;1.23;;;1.10;;
16543;SDS011;8384;47.996;7.786;2022-09-03T15:28:18;1.33;;;1.20;;
16543;SDS011;8384;47.996;7.786;2022-09-03T15:33:51;1.45;;;1.35;;
16543;SDS011;8384;47.996;7.786;2022-09-03T15:36:26;1.50;;;1.40;;
16543;SDS011;8384;47.996;7.786;2022-09-03T15:39:00;1.50;;;1.30;;
16543;SDS011;8384;47.996;7.786;2022-09-03T15:44:07;1.48;;;1.20;;
16543;SDS011;8384;47.996;7.786;2022-09-03T15:46:49;2.22;;;1.30;;
16543;SDS011;8384;47.996;7.786;2022-09-03T15:49:24;1.70;;;1.50;;
16543;SDS011;8384;47.996;7.786;2022-09-03T15:55:12;1.40;;;1.30;;
16543;SDS011;8384;47.996;7.786;2022-09-03T15:57:41;2.13;;;1.30;;
16543;SDS011;8384;47.996;7.786;2022-09-03T16:00:16;1.33;;;1.23;;
16543;SDS011;8384;47.996;7.786;2022-09-03T16:02:54;1.50;;;1.20;;
16543;SDS011;8384;47.996;7.786;2022-09-03T16:05:37;2.58;;;1.20;;
16543;SDS011;8384;47.996;7.786;2022-09-03T16:08:15;1.40;;;1.20;;
16543;SDS011;8384;47.996;7.786;2022-09-03T16:13:30;2.40;;;1.45;;
16543;SDS011;8384;47.996;7.786;2022-09-03T16:16:15;1.10;;;1.10;;
16543;SDS011;8384;47.996;7.786;2022-09-03T16:19:04;1.30;;;1.20;;
16543;SDS011;8384;47.996;7.786;2022-09-03T16:24:25;2.88;;;1.30;;
16543;SDS011;8384;47.996;7.786;2022-09-03T16:29:35;2.00;;;1.40;;
16543;SDS011;8384;47.996;7.786;2022-09-03T16:32:19;1.98;;;1.45;;
16543;SDS011;8384;47.996;7.786;2022-09-03T16:43:12;2.88;;;1.38;;
16543;SDS011;8384;47.996;7.786;2022-09-03T16:54:05;1.75;;;1.45;;
16543;SDS011;8384;47.996;7.786;2022-09-03T16:56:57;1.40;;;1.30;;
16543;SDS011;8384;47.996;7.786;2022-09-03T16:59:32;1.40;;;1.30;;
16543;SDS011;8384;47.996;7.786;2022-09-03T17:07:50;1.33;;;1.23;;
16543;SDS011;8384;47.996;7.786;2022-09-03T17:10:36;1.65;;;1.40;;
16543;SDS011;8384;47.996;7.786;2022-09-03T17:15:51;1.40;;;1.30;;
16543;SDS011;8384;47.996;7.786;2022-09-03T17:18:49;1.40;;;1.30;;
16543;SDS011;8384;47.996;7.786;2022-09-03T17:24:08;1.48;;;1.38;;
16543;SDS011;8384;47.996;7.786;2022-09-03T17:27:11;1.70;;;1.60;;
16543;SDS011;8384;47.996;7.786;2022-09-03T17:30:01;1.50;;;1.40;;
16543;SDS011;8384;47.996;7.786;2022-09-03T17:35:15;1.52;;;1.42;;
16543;SDS011;8384;47.996;7.786;2022-09-03T17:40:39;1.63;;;1.43;;
16543;SDS011;8384;47.996;7.786;2022-09-03T17:43:20;1.55;;;1.45;;
16543;SDS011;8384;47.996;7.786;2022-09-03T17:45:58;2.00;;;1.63;;
16543;SDS011;8384;47.996;7.786;2022-09-03T17:48:53;1.67;;;1.58;;
16543;SDS011;8384;47.996;7.786;2022-09-03T17:51:26;2.17;;;1.63;;
16543;SDS011;8384;47.996;7.786;2022-09-03T17:54:03;1.80;;;1.60;;
16543;SDS011;8384;47.996;7.786;2022-09-03T17:56:30;1.60;;;1.50;;
16543;SDS011;8384;47.996;7.786;2022-09-03T18:01:34;1.83;;;1.50;;
16543;SDS011;8384;47.996;7.786;2022-09-03T18:04:14;2.78;;;1.70;;
16543;SDS011;8384;47.996;7.786;2022-09-03T18:07:05;1.98;;;1.65;;
16543;SDS011;8384;47.996;7.786;2022-09-03T18:12:50;2.00;;;1.80;;
16543;SDS011;8384;47.996;7.786;2022-09-03T18:18:04;1.70;;;1.50;;
16543;SDS011;8384;47.996;7.786;2022-09-03T18:20:41;2.60;;;1.93;;
16543;SDS011;8384;47.996;7.786;2022-09-03T18:23:33;2.08;;;1.95;;
16543;SDS011;8384;47.996;7.786;2022-09-03T18:26:35;2.95;;;2.40;;
16543;SDS011;8384;47.996;7.786;2022-09-03T18:29:29;3.13;;;2.75;;
16543;SDS011;8384;47.996;7.786;2022-09-03T18:32:18;3.13;;;2.47;;
16543;SDS011;8384;47.996;7.786;2022-09-03T18:35:02;2.20;;;2.00;;
16543;SDS011;8384;47.996;7.786;2022-09-03T18:37:46;2.35;;;2.17;;
16543;SDS011;8384;47.996;7.786;2022-09-03T18:40:34;2.35;;;2.15;;
16543;SDS011;8384;47.996;7.786;2022-09-03T18:46:17;4.78;;;3.90;;
16543;SDS011;8384;47.996;7.786;2022-09-03T18:49:13;4.77;;;4.27;;
16543;SDS011;8384;47.996;7.786;2022-09-03T18:52:10;5.93;;;5.00;;
16543;SDS011;8384;47.996;7.786;2022-09-03T18:55:05;4.47;;;4.07;;
16543;SDS011;8384;47.996;7.786;2022-09-03T18:58:00;4.35;;;3.95;;
16543;SDS011;8384;47.996;7.786;2022-09-03T19:01:16;4.53;;;4.13;;
16543;SDS011;8384;47.996;7.786;2022-09-03T19:10:23;5.38;;;4.88;;
16543;SDS011;8384;47.996;7.786;2022-09-03T19:19:46;4.03;;;3.63;;